Météo Cheval Rigon

 

Relevés d'aujourd'hui



 

27/9/23
Time         Wind Dir   Wind Spd  Wind Gust   Humidity       Temp   Tot Rain Wind Chill  Dew Point   Barom SL Humidity R Temp Out R Tot Rain R   WindCh R   Dew Pt R SL Barom R Temp Out H Temp Out L  DailyRain   HourRain   24HrRain   RainRate  MonthRain
                          km/hr      km/hr          %         C         mm         C         C         mb       %/hr      C/hr      mm/hr      C/hr      C/hr      mm/hr         C         C         mm         mm         mm      mm/hr         mm
0:00               96          2          5         64       16.9     806.00       16.9       10.1    1019.48        2.8      -1.14      0.000      -1.14      -0.39     -0.344       16.9       16.9       0.00       0.00       0.00      0.000      85.60
0:15              120          3          5         61       17.6     806.00       17.6       10.0    1019.52        0.0      -0.46      0.000      -0.46      -0.42     -0.232       18.3       16.9       0.00       0.00       0.00      0.000      85.60
0:30               76          2          5         65       16.6     806.00       16.6       10.0    1019.62        3.4      -1.15      0.000      -1.15      -0.26     -0.087       18.3       16.6       0.00       0.00       0.00      0.000      85.60
0:45               97          0          2         67       16.1     806.00       16.1       10.0    1019.65        4.5      -1.37      0.000      -1.37      -0.25     -0.038       18.3       16.1       0.00       0.00       0.00      0.000      85.60
1:00              125          0          2         67       16.1     806.00       16.1       10.0    1019.72        3.2      -1.00      0.000      -1.00      -0.18      0.028       18.3       15.6       0.00       0.00       0.00      0.000      85.60
1:15              105          0          2         67       16.2     806.00       16.2       10.1    1019.79        2.5      -0.66      0.000      -0.66      -0.04      0.083       18.3       15.6       0.00       0.00       0.00      0.000      85.60
1:30              103          0          2         67       15.9     806.00       15.9        9.8    1019.79        2.0      -0.82      0.000      -0.82      -0.31      0.056       18.3       15.6       0.00       0.00       0.00      0.000      85.60
1:45              107          0          2         68       15.5     806.00       15.5        9.6    1019.92        2.4      -0.98      0.000      -0.98      -0.38      0.164       18.3       15.4       0.00       0.00       0.00      0.000      85.60
2:00              107          0          0         70       15.0     806.00       15.0        9.6    1019.92        3.7      -1.24      0.000      -1.24      -0.35      0.130       18.3       15.0       0.00       0.00       0.00      0.000      85.60
2:15              107          0          0         71       14.7     806.00       14.7        9.5    1019.96        3.7      -1.26      0.000      -1.26      -0.38      0.125       18.3       14.7       0.00       0.00       0.00      0.000      85.60
2:30              107          0          0         72       14.6     806.00       14.6        9.6    1020.06        3.8      -1.08      0.000      -1.08      -0.20      0.187       18.3       14.5       0.00       0.00       0.00      0.000      85.60
2:45              107          0          2         72       14.3     806.00       14.3        9.4    1020.02        3.2      -1.07      0.000      -1.07      -0.34      0.123       18.3       14.3       0.00       0.00       0.00      0.000      85.60
3:00              107          0          0         74       13.9     806.00       13.9        9.3    1020.06        4.2      -1.22      0.000      -1.22      -0.27      0.132       18.3       13.9       0.00       0.00       0.00      0.000      85.60
3:15              107          0          0         75       13.6     806.00       13.6        9.2    1019.99        4.1      -1.22      0.000      -1.22      -0.32      0.039       18.3       13.5       0.00       0.00       0.00      0.000      85.60
3:30              107          0          2         73       14.2     806.00       14.2        9.5    1019.96        1.4      -0.37      0.000      -0.37      -0.04      0.001       18.3       13.5       0.00       0.00       0.00      0.000      85.60
3:45              126          0          3         74       14.2     806.00       14.2        9.6    1019.85        2.1      -0.35      0.000      -0.35       0.12     -0.092       18.3       13.5       0.00       0.00       0.00      0.000      85.60
4:00              142          2          3         72       14.6     806.00       14.6        9.6    1019.72       -0.2       0.08      0.000       0.08       0.06     -0.191       18.3       13.5       0.00       0.00       0.00      0.000      85.60
4:15              117          3          5         65       16.2     806.00       16.2        9.6    1019.58       -6.3       1.47      0.000       1.47       0.05     -0.272       18.3       13.5       0.00       0.00       0.00      0.000      85.60
4:30              110          2          3         65       16.1     806.00       16.1        9.5    1019.58       -4.8       1.09      0.000       1.09       0.01     -0.213       18.3       13.5       0.00       0.00       0.00      0.000      85.60
4:45              153          0          3         70       14.7     806.00       14.7        9.3    1019.45        0.7      -0.40      0.000      -0.40      -0.20     -0.289       18.3       13.5       0.00       0.00       0.00      0.000      85.60
5:00              101          0          2         73       14.2     806.00       14.2        9.4    1019.52        3.2      -0.79      0.000      -0.79      -0.07     -0.170       18.3       13.5       0.00       0.00       0.00      0.000      85.60
5:15               99          0          2         73       14.2     806.00       14.2        9.5    1019.55        2.5      -0.58      0.000      -0.58      -0.02     -0.103       18.3       13.5       0.00       0.00       0.00      0.000      85.60
5:30              109          0          3         74       13.7     806.00       13.7        9.1    1019.45        3.0      -0.97      0.000      -0.97      -0.31     -0.167       18.3       13.5       0.00       0.00       0.00      0.000      85.60
5:45              110          3          3         73       14.0     806.00       14.0        9.2    1019.35        1.3      -0.44      0.000      -0.44      -0.13     -0.223       18.3       13.3       0.00       0.00       0.00      0.000      85.60
6:00              136          5          5         68       15.3     806.00       15.3        9.5    1019.04       -3.3       0.81      0.000       0.81       0.07     -0.447       18.3       13.3       0.00       0.00       0.00      0.000      85.60
6:15              116          0          5         68       15.4     806.00       15.4        9.6    1018.87       -2.6       0.71      0.000       0.71       0.13     -0.491       18.3       13.3       0.00       0.00       0.00      0.000      85.60
6:30               87          2          5         73       14.2     806.00       14.2        9.5    1018.84        2.5      -0.53      0.000      -0.53       0.01     -0.415       18.3       13.3       0.00       0.00       0.00      0.000      85.60
6:45              187          0          3         74       13.7     806.00       13.7        9.1    1018.84        3.0      -0.96      0.000      -0.96      -0.31     -0.320       18.3       13.3       0.00       0.00       0.00      0.000      85.60
7:00              104          3          5         71       14.7     806.00       14.7        9.5    1018.77       -0.4       0.15      0.000       0.15       0.06     -0.299       18.3       13.3       0.00       0.00       0.00      0.000      85.60

 


 

 

 

Retour accueil